sensor_id;sensor_type;location;lat;lon;timestamp;P1;durP1;ratioP1;P2;durP2;ratioP2
928;SDS011;451;47.988;7.842;2023-01-26T00:00:27;48.27;;;21.00;;
928;SDS011;451;47.988;7.842;2023-01-26T00:09:28;37.13;;;21.03;;
928;SDS011;451;47.988;7.842;2023-01-26T00:18:30;38.80;;;19.80;;
928;SDS011;451;47.988;7.842;2023-01-26T00:27:32;39.30;;;20.40;;
928;SDS011;451;47.988;7.842;2023-01-26T00:36:35;31.20;;;17.17;;
928;SDS011;451;47.988;7.842;2023-01-26T00:45:37;38.87;;;20.50;;
928;SDS011;451;47.988;7.842;2023-01-26T00:54:40;33.63;;;19.60;;
928;SDS011;451;47.988;7.842;2023-01-26T01:03:41;34.90;;;19.13;;
928;SDS011;451;47.988;7.842;2023-01-26T01:12:43;29.30;;;18.20;;
928;SDS011;451;47.988;7.842;2023-01-26T01:21:45;36.40;;;18.23;;
928;SDS011;451;47.988;7.842;2023-01-26T01:30:48;34.33;;;17.60;;
928;SDS011;451;47.988;7.842;2023-01-26T01:39:49;28.40;;;17.07;;
928;SDS011;451;47.988;7.842;2023-01-26T01:57:57;29.90;;;17.30;;
928;SDS011;451;47.988;7.842;2023-01-26T02:07:00;34.40;;;18.97;;
928;SDS011;451;47.988;7.842;2023-01-26T02:16:02;37.60;;;19.47;;
928;SDS011;451;47.988;7.842;2023-01-26T02:25:06;37.37;;;18.07;;
928;SDS011;451;47.988;7.842;2023-01-26T02:34:20;34.20;;;18.23;;
928;SDS011;451;47.988;7.842;2023-01-26T02:43:25;33.53;;;16.10;;
928;SDS011;451;47.988;7.842;2023-01-26T02:52:28;35.20;;;17.97;;
928;SDS011;451;47.988;7.842;2023-01-26T03:01:39;31.53;;;18.03;;
928;SDS011;451;47.988;7.842;2023-01-26T03:10:41;40.43;;;18.87;;
928;SDS011;451;47.988;7.842;2023-01-26T03:19:47;34.17;;;18.60;;
928;SDS011;451;47.988;7.842;2023-01-26T03:29:08;31.40;;;17.43;;
928;SDS011;451;47.988;7.842;2023-01-26T03:38:10;30.23;;;16.30;;
928;SDS011;451;47.988;7.842;2023-01-26T03:47:21;35.63;;;18.00;;
928;SDS011;451;47.988;7.842;2023-01-26T03:56:41;33.43;;;17.10;;
928;SDS011;451;47.988;7.842;2023-01-26T04:05:48;28.50;;;16.80;;
928;SDS011;451;47.988;7.842;2023-01-26T04:15:09;37.43;;;19.10;;
928;SDS011;451;47.988;7.842;2023-01-26T04:24:29;35.53;;;21.53;;
928;SDS011;451;47.988;7.842;2023-01-26T04:33:33;26.37;;;15.30;;
928;SDS011;451;47.988;7.842;2023-01-26T04:42:34;34.47;;;16.40;;
928;SDS011;451;47.988;7.842;2023-01-26T04:51:38;32.90;;;17.47;;
928;SDS011;451;47.988;7.842;2023-01-26T05:00:41;26.57;;;14.40;;
928;SDS011;451;47.988;7.842;2023-01-26T05:09:44;28.87;;;15.17;;
928;SDS011;451;47.988;7.842;2023-01-26T05:18:58;30.40;;;15.63;;
928;SDS011;451;47.988;7.842;2023-01-26T05:28:18;28.33;;;14.10;;
928;SDS011;451;47.988;7.842;2023-01-26T05:37:21;25.90;;;14.50;;
928;SDS011;451;47.988;7.842;2023-01-26T05:46:25;24.93;;;13.97;;
928;SDS011;451;47.988;7.842;2023-01-26T05:55:27;23.30;;;14.00;;
928;SDS011;451;47.988;7.842;2023-01-26T06:04:30;33.85;;;19.85;;
928;SDS011;451;47.988;7.842;2023-01-26T06:13:34;22.80;;;14.27;;
928;SDS011;451;47.988;7.842;2023-01-26T06:22:48;20.10;;;12.43;;
928;SDS011;451;47.988;7.842;2023-01-26T06:31:50;21.17;;;11.80;;
928;SDS011;451;47.988;7.842;2023-01-26T06:40:57;26.33;;;14.20;;
928;SDS011;451;47.988;7.842;2023-01-26T06:50:00;25.00;;;14.20;;
928;SDS011;451;47.988;7.842;2023-01-26T06:59:03;24.87;;;15.00;;
928;SDS011;451;47.988;7.842;2023-01-26T07:08:26;31.50;;;15.60;;
928;SDS011;451;47.988;7.842;2023-01-26T07:17:27;22.53;;;14.73;;
928;SDS011;451;47.988;7.842;2023-01-26T07:26:29;30.03;;;15.73;;
928;SDS011;451;47.988;7.842;2023-01-26T07:35:31;27.80;;;13.67;;
928;SDS011;451;47.988;7.842;2023-01-26T07:44:33;31.63;;;16.40;;
928;SDS011;451;47.988;7.842;2023-01-26T07:53:35;26.63;;;15.47;;
928;SDS011;451;47.988;7.842;2023-01-26T08:02:42;31.87;;;17.57;;
928;SDS011;451;47.988;7.842;2023-01-26T08:11:44;34.53;;;17.70;;
928;SDS011;451;47.988;7.842;2023-01-26T08:20:49;31.83;;;16.97;;
928;SDS011;451;47.988;7.842;2023-01-26T08:29:52;33.97;;;16.73;;
928;SDS011;451;47.988;7.842;2023-01-26T08:38:54;30.87;;;17.03;;
928;SDS011;451;47.988;7.842;2023-01-26T08:47:56;31.33;;;16.17;;
928;SDS011;451;47.988;7.842;2023-01-26T08:56:58;42.47;;;18.70;;
928;SDS011;451;47.988;7.842;2023-01-26T09:06:00;29.97;;;17.17;;
928;SDS011;451;47.988;7.842;2023-01-26T09:15:05;36.60;;;18.17;;
928;SDS011;451;47.988;7.842;2023-01-26T09:24:07;31.43;;;17.70;;
928;SDS011;451;47.988;7.842;2023-01-26T09:33:09;43.93;;;19.77;;
928;SDS011;451;47.988;7.842;2023-01-26T09:51:57;43.07;;;21.00;;
928;SDS011;451;47.988;7.842;2023-01-26T10:01:00;40.90;;;21.80;;
928;SDS011;451;47.988;7.842;2023-01-26T10:10:03;41.27;;;20.90;;
928;SDS011;451;47.988;7.842;2023-01-26T10:19:13;33.47;;;19.67;;
928;SDS011;451;47.988;7.842;2023-01-26T10:28:26;36.93;;;19.70;;
928;SDS011;451;47.988;7.842;2023-01-26T10:37:32;31.87;;;17.03;;
928;SDS011;451;47.988;7.842;2023-01-26T10:46:36;36.47;;;17.20;;
928;SDS011;451;47.988;7.842;2023-01-26T10:55:39;28.13;;;16.13;;
928;SDS011;451;47.988;7.842;2023-01-26T11:05:00;28.93;;;15.53;;
928;SDS011;451;47.988;7.842;2023-01-26T11:14:15;29.20;;;15.40;;
928;SDS011;451;47.988;7.842;2023-01-26T11:51:23;28.60;;;14.63;;
928;SDS011;451;47.988;7.842;2023-01-26T12:00:39;25.10;;;14.00;;
928;SDS011;451;47.988;7.842;2023-01-26T12:09:45;21.57;;;13.77;;
928;SDS011;451;47.988;7.842;2023-01-26T12:18:52;25.60;;;13.93;;
928;SDS011;451;47.988;7.842;2023-01-26T12:46:21;22.00;;;13.63;;
928;SDS011;451;47.988;7.842;2023-01-26T12:55:29;19.40;;;12.67;;
928;SDS011;451;47.988;7.842;2023-01-26T13:04:38;22.20;;;13.13;;
928;SDS011;451;47.988;7.842;2023-01-26T13:13:56;23.10;;;13.53;;
928;SDS011;451;47.988;7.842;2023-01-26T13:22:58;22.63;;;13.40;;
928;SDS011;451;47.988;7.842;2023-01-26T13:41:17;21.47;;;14.03;;
928;SDS011;451;47.988;7.842;2023-01-26T13:59:30;23.27;;;13.40;;
928;SDS011;451;47.988;7.842;2023-01-26T14:08:33;22.20;;;14.20;;
928;SDS011;451;47.988;7.842;2023-01-26T14:17:45;22.20;;;13.03;;
928;SDS011;451;47.988;7.842;2023-01-26T14:26:56;23.20;;;13.27;;
928;SDS011;451;47.988;7.842;2023-01-26T14:35:59;22.20;;;13.30;;
928;SDS011;451;47.988;7.842;2023-01-26T14:45:02;22.67;;;13.70;;
928;SDS011;451;47.988;7.842;2023-01-26T14:54:10;24.20;;;13.60;;
928;SDS011;451;47.988;7.842;2023-01-26T15:03:22;30.30;;;16.97;;
928;SDS011;451;47.988;7.842;2023-01-26T15:12:31;32.10;;;16.67;;
928;SDS011;451;47.988;7.842;2023-01-26T15:21:35;30.30;;;16.30;;
928;SDS011;451;47.988;7.842;2023-01-26T15:30:44;21.00;;;13.57;;
928;SDS011;451;47.988;7.842;2023-01-26T15:39:49;23.10;;;14.40;;
928;SDS011;451;47.988;7.842;2023-01-26T15:48:50;22.93;;;13.37;;
928;SDS011;451;47.988;7.842;2023-01-26T15:57:53;23.73;;;13.93;;
928;SDS011;451;47.988;7.842;2023-01-26T16:06:54;21.87;;;12.50;;
928;SDS011;451;47.988;7.842;2023-01-26T16:15:57;20.83;;;12.97;;
928;SDS011;451;47.988;7.842;2023-01-26T16:24:59;21.70;;;13.03;;
928;SDS011;451;47.988;7.842;2023-01-26T16:34:01;25.00;;;14.23;;
928;SDS011;451;47.988;7.842;2023-01-26T16:43:03;27.60;;;14.57;;
928;SDS011;451;47.988;7.842;2023-01-26T16:52:06;21.30;;;12.80;;
928;SDS011;451;47.988;7.842;2023-01-26T17:01:17;19.27;;;12.27;;
928;SDS011;451;47.988;7.842;2023-01-26T17:10:21;25.23;;;15.57;;
928;SDS011;451;47.988;7.842;2023-01-26T17:19:24;23.83;;;13.07;;
928;SDS011;451;47.988;7.842;2023-01-26T17:28:26;20.87;;;13.63;;
928;SDS011;451;47.988;7.842;2023-01-26T17:37:28;23.43;;;14.57;;
928;SDS011;451;47.988;7.842;2023-01-26T17:46:31;27.97;;;14.13;;
928;SDS011;451;47.988;7.842;2023-01-26T17:55:34;21.23;;;13.73;;
928;SDS011;451;47.988;7.842;2023-01-26T18:04:36;21.80;;;13.00;;
928;SDS011;451;47.988;7.842;2023-01-26T18:13:39;21.03;;;12.90;;
928;SDS011;451;47.988;7.842;2023-01-26T18:22:42;28.87;;;19.63;;
928;SDS011;451;47.988;7.842;2023-01-26T18:31:44;26.50;;;15.90;;
928;SDS011;451;47.988;7.842;2023-01-26T18:40:46;25.53;;;15.80;;
928;SDS011;451;47.988;7.842;2023-01-26T18:49:47;25.77;;;16.30;;
928;SDS011;451;47.988;7.842;2023-01-26T18:58:52;31.00;;;16.83;;
928;SDS011;451;47.988;7.842;2023-01-26T19:07:55;23.00;;;15.27;;
928;SDS011;451;47.988;7.842;2023-01-26T19:16:57;31.13;;;18.60;;
928;SDS011;451;47.988;7.842;2023-01-26T19:26:00;26.97;;;16.13;;
928;SDS011;451;47.988;7.842;2023-01-26T19:35:01;23.27;;;14.20;;
928;SDS011;451;47.988;7.842;2023-01-26T19:44:04;28.38;;;19.75;;
928;SDS011;451;47.988;7.842;2023-01-26T19:53:06;25.73;;;15.00;;
928;SDS011;451;47.988;7.842;2023-01-26T20:02:08;27.60;;;15.80;;
928;SDS011;451;47.988;7.842;2023-01-26T20:11:10;18.20;;;11.17;;
928;SDS011;451;47.988;7.842;2023-01-26T20:20:12;16.90;;;11.00;;
928;SDS011;451;47.988;7.842;2023-01-26T20:29:14;19.77;;;12.20;;
928;SDS011;451;47.988;7.842;2023-01-26T20:38:18;13.47;;;10.50;;
928;SDS011;451;47.988;7.842;2023-01-26T20:47:20;16.70;;;13.00;;
928;SDS011;451;47.988;7.842;2023-01-26T20:56:22;15.47;;;10.77;;
928;SDS011;451;47.988;7.842;2023-01-26T21:05:24;15.87;;;10.37;;
928;SDS011;451;47.988;7.842;2023-01-26T21:14:26;10.03;;;8.40;;
928;SDS011;451;47.988;7.842;2023-01-26T21:23:28;11.10;;;7.97;;
928;SDS011;451;47.988;7.842;2023-01-26T21:32:31;7.60;;;6.80;;
928;SDS011;451;47.988;7.842;2023-01-26T21:41:33;6.77;;;6.00;;
928;SDS011;451;47.988;7.842;2023-01-26T21:50:53;11.07;;;7.70;;
928;SDS011;451;47.988;7.842;2023-01-26T22:00:14;7.03;;;6.00;;
928;SDS011;451;47.988;7.842;2023-01-26T22:09:16;10.80;;;7.57;;
928;SDS011;451;47.988;7.842;2023-01-26T22:18:18;9.33;;;7.03;;
928;SDS011;451;47.988;7.842;2023-01-26T22:27:20;7.43;;;6.47;;
928;SDS011;451;47.988;7.842;2023-01-26T22:36:22;10.70;;;7.67;;
928;SDS011;451;47.988;7.842;2023-01-26T22:45:25;11.23;;;9.60;;
928;SDS011;451;47.988;7.842;2023-01-26T22:54:26;11.70;;;7.70;;
928;SDS011;451;47.988;7.842;2023-01-26T23:03:28;12.00;;;9.30;;
928;SDS011;451;47.988;7.842;2023-01-26T23:12:30;12.07;;;9.03;;
928;SDS011;451;47.988;7.842;2023-01-26T23:21:32;11.77;;;8.77;;
928;SDS011;451;47.988;7.842;2023-01-26T23:30:33;15.20;;;11.00;;
928;SDS011;451;47.988;7.842;2023-01-26T23:39:35;13.50;;;10.40;;
928;SDS011;451;47.988;7.842;2023-01-26T23:48:37;16.20;;;10.63;;
928;SDS011;451;47.988;7.842;2023-01-26T23:57:39;15.77;;;10.67;;
